Etusivu
METAR-TAF:

METAR-TAF

Lentoasemat :

Meadow Lake, Saskatchewan, Kanada

Leveyspiiri: 54-08N, Pituuspiiri: 108-31W, korkeus merenpinnasta: 480 m

Tämänhetkinen sää

Tämä raportti tehtiin 42 minuuttia sitten, kello 23.00 UTC
Tuuli 17 kn lännestä/luoteesta puuskistuen 26 kn:hen
Lämpötila 10°C
Kosteus 14%
Ilmanpaine 1018 hPa
Näkyvyys: 24.1 km
Hajanaisia pilviä 10000 ft:n korkeudessa

METAR: CYLJ 252300Z 30017G26KT 15SM SCT100 10/M16 A3006 RMK AC4 SLP200

Aika: 17:42 (23:42 UTC)


TAF: puuttuu

Säähavainnot ja -ennusteet yli 4000 lentoasemalta (METAR- ja TAF-raportit).

Käytössä olevat sääasemat on merkitty karttaan keltaisilla ja punaisilla pisteillä.

Aseta hiiri pisteen päälle nähdäksesi sääaseman nimen.

Klikkaa sitten nähdäksesi säähavainnot ja -ennusteet.

Kartan vaihtaminen: klikkaa mustalla rastilla varustettuja vihreitä pisteitä, niin voit zoomata sisään; viivalla varustettua vihreää pistettä, niin voit zoomata ulos tai vihreitä nuolia, niin pääset viereisille kartoille.


METAR-TAF: